CheckWX is a tool to help pilots better visualize weather data.  It is not intended as a substitute for an official pre-flight weather briefing.

19:01:23 UTC

KOAK METAR
Metropolitan Oakland International Airport
Oakland, California, USA
Current

8 mins ago

KOAK 191853Z 29006KT 10SM BKN014 21/13 A2998 RMK AO2 SLP150 T02060133
Observed
Jun-19 @ 18:53 UTC
Wind
  • 290° at 6 KTS
Visibility
10 SM
Flight Rules
MVFR
Cloud Levels
  • Broken at 1,400' AGL
Temperature
21°C / 70°F
Dewpoint
13°C / 55°F
Humidity
60%
Altimeter
29.98" Hg
Pressure
1015.22 hPa
Previous

1 hour ago

KOAK 191753Z 31008KT 6SM HZ OVC012 19/14 A2997 RMK AO2 SLP149 T01890139 10189 20156 51006
Observed
Jun-19 @ 17:53 UTC
Wind
  • 310° at 8 KTS
Visibility
6 SM
Flight Rules
MVFR
Conditions
Haze
Cloud Levels
  • Overcast at 1,200' AGL
Temperature
19°C / 66°F
Dewpoint
14°C / 57°F
Humidity
73%
Altimeter
29.97" Hg
Pressure
1014.92 hPa
Previous

2 hours ago

KOAK 191653Z 35006KT 6SM HZ OVC012 18/13 A2997 RMK AO2 SLP148 T01830133
Observed
Jun-19 @ 16:53 UTC
Wind
  • 350° at 6 KTS
Visibility
6 SM
Flight Rules
MVFR
Conditions
Haze
Cloud Levels
  • Overcast at 1,200' AGL
Temperature
18°C / 64°F
Dewpoint
13°C / 55°F
Humidity
73%
Altimeter
29.97" Hg
Pressure
1014.92 hPa